Nearby METAR Reports

 

KRUT - Rutland State, Vermont, USA
Distance from station: NW 10mi, 17km
Updated: Tue, 23-Oct-2018 2:56pm EDT
Clear
Clear
 Wind from SE
Wind: SE 14 mph , 22 km/h
Temperature: 48°F , 9°C
Wind Chill: 42°F , 6°C
Dew Point: 41°F , 5°C
Humidity: 76%
Barometer: 29.92 inHg , 1013.2 hPa
Clouds: Clear
Visibility: 10 miles , 16 km
2018/10/23 18:56 KRUT 231856Z AUTO 13012KT 10SM CLR 09/05 A2992 RMK AO2 SLP157 T00890050 $
KVSF - Springfield, Vermont, USA
Distance from station: ESE 15mi, 23km
Updated: Tue, 23-Oct-2018 2:56pm EDT
Rain, Mist, Overcast
Rain, Mist, Overcast
 Wind from ENE
Wind: ENE 6 mph , 9 km/h
Temperature: 43°F , 6°C
Wind Chill: 39°F , 4°C
Dew Point: 43°F , 6°C
Humidity: 100%
Barometer: 29.96 inHg , 1014.6 hPa
Summary: Rain, Mist
Clouds: Overcast
Visibility: 2 miles , 3 km
Cloud details: Few Clouds 1000 ft
Partly cloudy 2200 ft
Overcast 3700 ft
2018/10/23 18:56 KVSF 231856Z AUTO 06005KT 2SM RA BR FEW010 SCT022 OVC037 06/06 A2996 RMK AO2 P0000 T00560056
 
KLEB - Lebanon, New Hampshire, USA
Distance from station: ENE 28mi, 46km
Updated: Tue, 23-Oct-2018 2:53pm EDT
Light rain, Mist, Overcast
Light rain, Mist, Overcast
 Wind from NW
Wind: NW 5 mph , 7 km/h
Temperature: 45°F , 7°C
Wind Chill: 42°F , 6°C
Dew Point: 39°F , 4°C
Humidity: 81%
Barometer: 29.96 inHg , 1014.6 hPa
Summary: Light rain, Mist
Clouds: Overcast
Visibility: 3 miles , 5 km
Cloud details: Mostly cloudy 1900 ft
Overcast 2800 ft
2018/10/23 18:53 KLEB 231853Z 31004KT 3SM -RA BR BKN019 OVC028 07/04 A2996 RMK AO2 SLP150 P0005 T00670044
K6B0 - Middlebury, Vermont, USA
Distance from station: NNW 42mi, 67km
Updated: Tue, 23-Oct-2018 2:55pm EDT
Overcast
Overcast
 Wind from ESE
Wind: ESE 9 mph , 15 km/h
Temperature: 43°F , 6°C
Wind Chill: 38°F , 3°C
Dew Point: 37°F , 3°C
Humidity: 81%
Barometer: 29.93 inHg , 1013.5 hPa
Clouds: Overcast
Visibility: 10 miles , 16 km
Cloud details: Overcast 3300 ft
2018/10/23 18:55 K6B0 231855Z AUTO 12008KT 080V150 10SM OVC033 06/03 A2993 RMK AO2 T00630026
 
KGFL - Glens Falls, New York, USA
Distance from station: W 42mi, 68km
Updated: Tue, 23-Oct-2018 2:53pm EDT
Few Clouds
Few Clouds
 Wind from calm
Wind: Calm
Temperature: 52°F , 11°C
Dew Point: 43°F , 6°C
Humidity: 72%
Barometer: 29.92 inHg , 1013.2 hPa
Clouds: Few Clouds
Visibility: 10 miles , 16 km
Cloud details: Few Clouds 5500 ft
2018/10/23 18:53 KGFL 231853Z AUTO 00000KT 10SM FEW055 11/06 A2992 RMK AO2 SLP137 T01060056
KDDH - Bennington, Vermont, USA
Distance from station: SSW 43mi, 69km
Updated: Tue, 23-Oct-2018 2:54pm EDT
Partly cloudy
Partly cloudy
 Wind from S
Wind: S 8 mph , 13 km/h
Temperature: 55°F , 13°C
Dew Point: 43°F , 6°C
Humidity: 63%
Barometer: 29.89 inHg , 1012.2 hPa
Clouds: Partly cloudy
Visibility: 10 miles , 16 km
Cloud details: Partly cloudy 7000 ft
2018/10/23 18:54 KDDH 231854Z AUTO 17007KT 10SM SCT070 13/06 A2989 RMK AO2 SLP123 T01330061
 
KEEN - Keene/Dillant, New Hampshire, USA
Distance from station: SE 46mi, 73km
Updated: Tue, 23-Oct-2018 2:56pm EDT
Rain, Overcast
Rain, Overcast
 Wind from ENE
Wind: ENE 6 mph , 9 km/h
Temperature: 46°F , 8°C
Wind Chill: 43°F , 6°C
Dew Point: 45°F , 7°C
Humidity: 93%
Barometer: 29.92 inHg , 1013.2 hPa
Summary: Rain
Clouds: Overcast
Visibility: 8 miles , 13 km
Cloud details: Mostly cloudy 2400 ft
Overcast 4800 ft
2018/10/23 18:56 KEEN 231856Z AUTO 07005KT 8SM RA BKN024 OVC048 08/07 A2992 RMK AO2 RAB1758 PRESFR SLP151 P0003 T00780072 $
KALB - Albany, New York, USA
Distance from station: SW 69mi, 111km
Updated: Tue, 23-Oct-2018 2:51pm EDT
Light rain, Mostly cloudy
Light rain, Mostly cloudy
 Wind from S
Wind: S 8 mph , 13 km/h
Temperature: 57°F , 14°C
Dew Point: 39°F , 4°C
Humidity: 51%
Barometer: 29.89 inHg , 1012.2 hPa
Summary: Light rain
Clouds: Mostly cloudy
Visibility: 10 miles , 16 km
Cloud details: Few Clouds 4500 ft
Partly cloudy 7500 ft
Mostly cloudy 9000 ft
2018/10/23 18:51 KALB 231851Z 19007KT 10SM -RA FEW045 SCT075 BKN090 14/04 A2989 RMK AO2 RAB48 SLP124 PCPN VRY LGT AND INTMT P0000 T01390039
 
KSCH - Schenectady Airp, New York, USA
Distance from station: SW 69mi, 111km
Updated: Tue, 23-Oct-2018 2:45pm EDT
Clear
Clear
 Wind from E
Wind: E 5 mph , 7 km/h
Temperature: 57°F , 14°C
Dew Point: 41°F , 5°C
Humidity: 55%
Barometer: 29.89 inHg , 1012.2 hPa
Clouds: Clear
Visibility: 15 miles , 24 km
2018/10/23 18:45 KSCH 231845Z 09004KT 15SM CLR 14/05 A2989
KLCI - Laconia Muni, New Hampshire, USA
Distance from station: E 69mi, 112km
Updated: Tue, 23-Oct-2018 2:56pm EDT
Light rain, Overcast
Light rain, Overcast
 Wind from ENE
Wind: ENE 9 mph , 15 km/h
Temperature: 43°F , 6°C
Wind Chill: 38°F , 3°C
Dew Point: 41°F , 5°C
Humidity: 93%
Barometer: 29.99 inHg , 1015.6 hPa
Summary: Light rain
Clouds: Overcast
Visibility: 7 miles , 11 km
Cloud details: Partly cloudy 1000 ft
Mostly cloudy 1700 ft
Overcast 3700 ft
2018/10/23 18:56 KLCI 231856Z AUTO 07008KT 7SM -RA SCT010 BKN017 OVC037 06/05 A2999 RMK AO2 SLP175 P0001 T00610050 $
 
KBTV - Burlington, Vermont, USA
Distance from station: NNW 74mi, 120km
Updated: Tue, 23-Oct-2018 2:54pm EDT
Light rain, Overcast
Light rain, Overcast
 Wind from E
Wind: E 6 mph , 9 km/h
Temperature: 43°F , 6°C
Wind Chill: 39°F , 4°C
Dew Point: 39°F , 4°C
Humidity: 87%
Barometer: 29.96 inHg , 1014.6 hPa
Summary: Light rain
Clouds: Overcast
Visibility: 9 miles , 14 km
Cloud details: Partly cloudy 2000 ft
Mostly cloudy 2400 ft
Overcast 3100 ft
2018/10/23 18:54 KBTV 231854Z 09005KT 9SM -RA SCT020 BKN024 OVC031 06/04 A2996 RMK AO2 SLP149 P0008 T00610039
KMHT - Manchester, New Hampshire, USA
Distance from station: ESE 76mi, 123km
Updated: Tue, 23-Oct-2018 2:53pm EDT
Overcast
Overcast
 Wind from SE
Wind: SE 13 mph , 20 km/h, Gust: 21 mph , 33 km/h
Temperature: 55°F , 13°C
Dew Point: 43°F , 6°C
Humidity: 63%
Barometer: 29.95 inHg , 1014.2 hPa
Clouds: Overcast
Visibility: 10 miles , 16 km
Cloud details: Partly cloudy 2600 ft
Mostly cloudy 5500 ft
Overcast 11000 ft
2018/10/23 18:53 KMHT 231853Z 13011G18KT 10SM SCT026 BKN055 OVC110 13/06 A2995 RMK AO2 SLP156 T01280061
 
KMVL - Morrisville, Vermont, USA
Distance from station: N 77mi, 124km
Updated: Tue, 23-Oct-2018 2:54pm EDT
Light rain, Mist, Overcast
Light rain, Mist, Overcast
 Wind from calm
Wind: Calm
Temperature: 41°F , 5°C
Dew Point: 39°F , 4°C
Humidity: 93%
Barometer: 29.99 inHg , 1015.6 hPa
Summary: Light rain, Mist
Clouds: Overcast
Visibility: 6 miles , 10 km
Cloud details: Overcast 1700 ft
2018/10/23 18:54 KMVL 231854Z AUTO 00000KT 6SM -RA BR OVC017 05/04 A2999 RMK AO2 RAE21B38 SLP162 P0002 T00500039